createdAt,value
2019-02-08T00:01:37.409Z,12.07
2019-02-08T00:04:03.180Z,13.97
2019-02-08T00:06:29.033Z,16.10
2019-02-08T00:08:54.803Z,13.30
2019-02-08T00:11:20.552Z,10.53
2019-02-08T00:13:46.317Z,13.07
2019-02-08T00:16:12.068Z,8.93
2019-02-08T00:18:37.859Z,9.73
2019-02-08T00:21:03.929Z,10.10
2019-02-08T00:23:29.688Z,9.10
2019-02-08T00:25:55.471Z,9.97
2019-02-08T00:28:21.242Z,12.80
2019-02-08T00:30:47.091Z,10.50
2019-02-08T00:33:12.872Z,9.30
2019-02-08T00:35:38.623Z,9.27
2019-02-08T00:38:04.381Z,9.57
2019-02-08T00:40:30.133Z,8.10
2019-02-08T00:42:57.801Z,8.00
2019-02-08T00:45:23.578Z,8.80
2019-02-08T00:47:49.479Z,11.97
2019-02-08T00:50:35.116Z,9.90
2019-02-08T00:53:00.877Z,5.63
2019-02-08T00:55:26.752Z,6.63
2019-02-08T00:57:54.431Z,8.40
2019-02-08T01:01:01.888Z,10.30
2019-02-08T01:03:27.654Z,8.73
2019-02-08T01:05:53.405Z,9.27
2019-02-08T01:09:02.760Z,12.67
2019-02-08T01:11:28.508Z,9.30
2019-02-08T01:13:54.273Z,11.60
2019-02-08T01:16:20.050Z,11.60
2019-02-08T01:18:45.956Z,11.47
2019-02-08T01:21:11.713Z,12.87
2019-02-08T01:23:41.178Z,11.93
2019-02-08T01:26:05.340Z,5.37
2019-02-08T01:28:31.140Z,7.43
2019-02-08T01:30:56.886Z,8.93
2019-02-08T01:33:22.636Z,11.20
2019-02-08T01:35:48.397Z,9.47
2019-02-08T01:38:14.159Z,9.43
2019-02-08T01:40:39.928Z,8.73
2019-02-08T01:43:47.387Z,11.80
2019-02-08T01:46:13.136Z,13.10
2019-02-08T01:48:38.892Z,13.63
2019-02-08T01:51:04.655Z,10.73
2019-02-08T01:53:30.417Z,11.83
2019-02-08T01:55:56.211Z,10.77
2019-02-08T01:58:21.982Z,9.10
2019-02-08T02:00:47.745Z,8.13
2019-02-08T02:03:13.509Z,9.80
2019-02-08T02:06:20.946Z,11.43
2019-02-08T02:08:46.695Z,8.90
2019-02-08T02:11:12.485Z,10.50
2019-02-08T02:13:38.232Z,13.60
2019-02-08T02:16:04.231Z,12.53
2019-02-08T02:18:31.676Z,13.27
2019-02-08T02:20:57.478Z,13.33
2019-02-08T02:23:23.225Z,13.03
2019-02-08T02:25:48.990Z,13.90
2019-02-08T02:28:14.748Z,13.83
2019-02-08T02:30:40.515Z,14.63
2019-02-08T02:33:47.943Z,13.17
2019-02-08T02:36:13.711Z,15.20
2019-02-08T02:38:39.479Z,14.30
2019-02-08T02:41:05.239Z,14.37
2019-02-08T02:43:32.521Z,17.47
2019-02-08T02:45:58.692Z,15.53
2019-02-08T02:48:24.455Z,15.80
2019-02-08T02:50:50.226Z,14.77
2019-02-08T02:53:16.001Z,12.93
2019-02-08T02:55:41.913Z,17.47
2019-02-08T02:58:07.646Z,17.03
2019-02-08T03:01:15.105Z,16.10
2019-02-08T03:03:41.002Z,18.93
2019-02-08T03:06:06.783Z,17.13
2019-02-08T03:08:32.538Z,14.70
2019-02-08T03:10:58.304Z,17.93
2019-02-08T03:13:24.078Z,18.57
2019-02-08T03:15:49.871Z,18.83
2019-02-08T03:18:15.640Z,15.47
2019-02-08T03:20:41.421Z,15.20
2019-02-08T03:23:07.278Z,14.37
2019-02-08T03:28:47.122Z,17.07
2019-02-08T03:31:12.937Z,15.23
2019-02-08T03:33:38.685Z,16.60
2019-02-08T03:36:04.442Z,16.63
2019-02-08T03:38:30.211Z,16.67
2019-02-08T03:40:56.063Z,14.87
2019-02-08T03:43:21.840Z,16.70
2019-02-08T03:48:54.801Z,18.67
2019-02-08T03:51:20.557Z,19.80
2019-02-08T03:53:46.326Z,16.33
2019-02-08T03:56:12.078Z,15.20
2019-02-08T03:58:37.853Z,17.23
2019-02-08T04:03:51.129Z,19.57
2019-02-08T04:06:16.885Z,18.37
2019-02-08T04:08:42.673Z,18.53
2019-02-08T04:11:08.410Z,15.17
2019-02-08T04:13:34.181Z,15.07
2019-02-08T04:15:59.935Z,16.03
2019-02-08T04:18:25.693Z,18.77
2019-02-08T04:20:51.456Z,18.63
2019-02-08T04:23:17.238Z,17.77
2019-02-08T04:25:43.010Z,16.07
2019-02-08T04:28:08.782Z,14.33
2019-02-08T04:30:34.657Z,14.90
2019-02-08T04:33:42.103Z,14.57
2019-02-08T04:36:07.857Z,16.20
2019-02-08T04:38:33.618Z,15.00
2019-02-08T04:40:59.378Z,14.97
2019-02-08T04:43:25.179Z,16.90
2019-02-08T04:45:51.057Z,19.07
2019-02-08T04:48:18.097Z,19.13
2019-02-08T04:50:46.879Z,17.30
2019-02-08T04:53:13.043Z,18.70
2019-02-08T04:55:39.174Z,15.97
2019-02-08T04:58:05.095Z,17.47
2019-02-08T05:03:44.616Z,21.33
2019-02-08T05:06:10.378Z,15.97
2019-02-08T05:08:36.132Z,16.93
2019-02-08T05:11:01.911Z,16.07
2019-02-08T05:13:27.683Z,18.77
2019-02-08T05:15:53.445Z,17.20
2019-02-08T05:18:19.208Z,19.77
2019-02-08T05:20:44.993Z,17.70
2019-02-08T05:23:10.746Z,20.50
2019-02-08T05:25:36.510Z,18.40
2019-02-08T05:31:09.660Z,16.43
2019-02-08T05:33:35.411Z,19.03
2019-02-08T05:36:01.189Z,17.03
2019-02-08T05:38:26.925Z,16.77
2019-02-08T05:40:52.689Z,14.30
2019-02-08T05:43:18.457Z,16.93
2019-02-08T05:45:44.221Z,16.07
2019-02-08T05:48:09.977Z,19.57
2019-02-08T05:50:35.749Z,20.30
2019-02-08T05:53:01.507Z,19.47
2019-02-08T05:56:08.964Z,20.20
2019-02-08T05:58:34.717Z,18.10
2019-02-08T06:01:00.479Z,16.40
2019-02-08T06:03:26.243Z,17.80
2019-02-08T06:05:52.030Z,21.23
2019-02-08T06:08:17.870Z,21.10
2019-02-08T06:10:43.658Z,17.30
2019-02-08T06:13:09.512Z,16.90
2019-02-08T06:16:16.960Z,22.00
2019-02-08T06:18:42.816Z,23.37
2019-02-08T06:21:08.598Z,23.03
2019-02-08T06:23:34.362Z,26.43
2019-02-08T06:26:00.143Z,25.80
2019-02-08T06:28:25.904Z,20.10
2019-02-08T06:30:51.674Z,21.00
2019-02-08T06:33:17.421Z,19.90
2019-02-08T06:35:43.173Z,19.33
2019-02-08T06:38:09.036Z,21.87
2019-02-08T06:40:54.665Z,16.33
2019-02-08T06:43:20.449Z,21.47
2019-02-08T06:45:46.213Z,22.23
2019-02-08T06:48:11.988Z,18.33
2019-02-08T06:50:37.743Z,19.47
2019-02-08T06:53:03.607Z,19.37
2019-02-08T06:55:29.373Z,17.00
2019-02-08T06:58:15.339Z,19.87
2019-02-08T07:07:06.182Z,19.67
2019-02-08T07:09:51.927Z,18.67
2019-02-08T07:12:37.584Z,18.37
2019-02-08T07:21:15.454Z,18.53
2019-02-08T07:24:01.120Z,22.03
2019-02-08T07:32:07.516Z,16.80
2019-02-08T07:34:53.170Z,14.03
2019-02-08T07:38:00.594Z,17.10
2019-02-08T07:41:08.055Z,14.07
2019-02-08T07:43:53.828Z,16.80
2019-02-08T07:47:01.255Z,19.10
2019-02-08T07:50:08.702Z,18.80
2019-02-08T07:53:16.137Z,19.00
2019-02-08T07:56:23.589Z,19.37
2019-02-08T07:59:09.340Z,15.47
2019-02-08T08:02:16.791Z,15.13
2019-02-08T08:07:36.112Z,17.03
2019-02-08T08:10:43.571Z,14.63
2019-02-08T08:13:29.213Z,13.20
2019-02-08T08:16:14.881Z,15.60
2019-02-08T08:19:00.532Z,13.03
2019-02-08T08:21:46.211Z,14.90
2019-02-08T08:24:53.648Z,14.30
2019-02-08T08:28:01.096Z,13.00
2019-02-08T08:30:46.863Z,9.50
2019-02-08T08:33:54.295Z,11.23
2019-02-08T08:37:01.736Z,10.90
2019-02-08T08:40:09.163Z,12.03
2019-02-08T08:43:15.275Z,11.60
2019-02-08T08:46:22.760Z,13.60
2019-02-08T08:49:30.191Z,12.07
2019-02-08T08:52:35.729Z,11.40
2019-02-08T08:55:42.456Z,11.50
2019-02-08T08:58:49.930Z,10.83
2019-02-08T09:01:55.465Z,12.77
2019-02-08T09:05:00.993Z,14.03
2019-02-08T09:08:06.555Z,11.23
2019-02-08T09:11:13.995Z,15.70
2019-02-08T09:14:21.421Z,14.00
2019-02-08T09:17:26.959Z,17.30
2019-02-08T09:20:32.505Z,16.43
2019-02-08T09:23:38.051Z,17.73
2019-02-08T09:26:43.590Z,12.20
2019-02-08T09:29:49.122Z,13.80
2019-02-08T09:32:56.580Z,13.13
2019-02-08T09:36:04.011Z,9.57
2019-02-08T09:39:09.543Z,12.40
2019-02-08T09:42:15.083Z,14.63
2019-02-08T09:45:20.626Z,11.97
2019-02-08T09:48:26.176Z,17.60
2019-02-08T09:51:31.693Z,10.60
2019-02-08T09:54:39.139Z,12.03
2019-02-08T09:57:46.588Z,13.60
2019-02-08T10:00:52.112Z,14.63
2019-02-08T10:03:57.646Z,12.30
2019-02-08T10:07:03.182Z,14.80
2019-02-08T10:10:10.634Z,13.50
2019-02-08T10:13:16.155Z,12.57
2019-02-08T10:16:21.683Z,17.13
2019-02-08T10:19:27.225Z,13.10
2019-02-08T10:22:34.668Z,14.57
2019-02-08T10:25:40.205Z,14.83
2019-02-08T10:28:45.756Z,12.20
2019-02-08T10:31:53.188Z,13.33
2019-02-08T10:34:58.712Z,13.40
2019-02-08T10:38:04.269Z,13.50
2019-02-08T10:41:11.694Z,13.77
2019-02-08T10:44:17.222Z,12.57
2019-02-08T10:47:22.744Z,14.10
2019-02-08T10:50:28.323Z,14.70
2019-02-08T10:53:33.810Z,14.20
2019-02-08T10:56:39.355Z,14.87
2019-02-08T10:59:44.897Z,16.67
2019-02-08T11:02:52.358Z,20.63
2019-02-08T11:05:59.785Z,20.93
2019-02-08T11:09:05.307Z,17.40
2019-02-08T11:12:10.845Z,15.90
2019-02-08T11:15:16.395Z,16.40
2019-02-08T11:18:21.909Z,15.67
2019-02-08T11:20:47.694Z,15.73
2019-02-08T11:23:13.457Z,17.30
2019-02-08T11:25:39.221Z,16.80
2019-02-08T11:28:04.979Z,16.63
2019-02-08T11:30:30.739Z,17.07
2019-02-08T11:32:56.499Z,17.50
2019-02-08T11:35:22.307Z,16.87
2019-02-08T11:37:48.071Z,16.73
2019-02-08T11:40:33.718Z,16.57
2019-02-08T11:42:59.487Z,16.33
2019-02-08T11:45:25.339Z,16.13
2019-02-08T11:47:51.110Z,16.20
2019-02-08T11:50:58.561Z,16.37
2019-02-08T11:53:24.320Z,15.07
2019-02-08T11:55:50.091Z,17.20
2019-02-08T11:58:15.951Z,19.43
2019-02-08T12:03:19.995Z,25.43
2019-02-08T12:05:45.763Z,20.07
2019-02-08T12:08:11.629Z,17.37
2019-02-08T12:10:37.391Z,20.00
2019-02-08T12:13:44.862Z,18.63
2019-02-08T12:16:10.941Z,18.87
2019-02-08T12:18:36.884Z,17.87
2019-02-08T12:21:02.788Z,18.50
2019-02-08T12:23:28.886Z,17.73
2019-02-08T12:25:54.801Z,17.23
2019-02-08T12:28:20.818Z,17.57
2019-02-08T12:30:46.742Z,18.97
2019-02-08T12:33:12.510Z,19.50
2019-02-08T12:35:38.431Z,20.47
2019-02-08T12:38:04.198Z,21.83
2019-02-08T12:40:30.208Z,20.57
2019-02-08T12:42:56.262Z,22.97
2019-02-08T12:48:49.168Z,19.37
2019-02-08T12:51:15.038Z,21.73
2019-02-08T12:53:40.839Z,18.10
2019-02-08T12:56:06.688Z,20.87
2019-02-08T12:58:33.129Z,21.47
2019-02-08T13:00:58.886Z,19.80
2019-02-08T13:03:24.713Z,20.10
2019-02-08T13:05:50.469Z,20.17
2019-02-08T13:08:16.293Z,22.37
2019-02-08T13:10:42.219Z,23.70
2019-02-08T13:13:07.987Z,20.77
2019-02-08T13:15:33.760Z,22.50
2019-02-08T13:17:59.526Z,22.97
2019-02-08T13:20:25.350Z,19.20
2019-02-08T13:22:51.105Z,26.13
2019-02-08T13:25:58.583Z,22.37
2019-02-08T13:28:24.353Z,24.23
2019-02-08T13:30:50.100Z,22.80
2019-02-08T13:33:16.584Z,20.03
2019-02-08T13:35:43.530Z,22.10
2019-02-08T13:38:09.292Z,22.80
2019-02-08T13:40:35.060Z,21.50
2019-02-08T13:43:00.923Z,22.17
2019-02-08T13:46:08.365Z,21.63
2019-02-08T13:48:34.126Z,20.20
2019-02-08T13:50:59.907Z,18.60
2019-02-08T13:53:25.661Z,19.23
2019-02-08T13:55:51.439Z,18.60
2019-02-08T13:58:17.189Z,20.73
2019-02-08T14:00:43.086Z,21.83
2019-02-08T14:03:08.842Z,20.23
2019-02-08T14:05:34.611Z,20.37
2019-02-08T14:08:00.368Z,17.97
2019-02-08T14:10:26.164Z,20.27
2019-02-08T14:12:52.012Z,16.83
2019-02-08T14:15:59.473Z,19.33
2019-02-08T14:18:25.226Z,17.00
2019-02-08T14:20:51.015Z,19.60
2019-02-08T14:23:16.766Z,19.23
2019-02-08T14:25:42.532Z,17.33
2019-02-08T14:28:08.303Z,15.00
2019-02-08T14:31:15.772Z,16.63
2019-02-08T14:33:41.533Z,16.40
2019-02-08T14:36:07.367Z,20.30
2019-02-08T14:38:33.166Z,15.60
2019-02-08T14:40:58.936Z,12.87
2019-02-08T14:43:24.710Z,16.93
2019-02-08T14:45:50.473Z,16.00
2019-02-08T14:48:16.243Z,16.23
2019-02-08T14:50:42.013Z,14.07
2019-02-08T14:53:07.780Z,14.47
2019-02-08T14:55:33.530Z,14.83
2019-02-08T14:58:40.963Z,12.77
2019-02-08T15:01:06.731Z,15.47
2019-02-08T15:03:32.489Z,17.73
2019-02-08T15:05:58.264Z,16.83
2019-02-08T15:08:24.028Z,15.77
2019-02-08T15:14:03.511Z,10.17
2019-02-08T15:16:29.279Z,11.60
2019-02-08T15:18:55.045Z,12.70
2019-02-08T15:21:20.828Z,11.80
2019-02-08T15:23:46.581Z,10.10
2019-02-08T15:26:12.333Z,11.13
2019-02-08T15:28:38.117Z,11.20
2019-02-08T15:31:04.102Z,10.23
2019-02-08T15:33:29.870Z,11.07
2019-02-08T15:35:55.634Z,8.90
2019-02-08T15:38:21.413Z,9.90
2019-02-08T15:41:28.845Z,9.43
2019-02-08T15:43:54.615Z,11.27
2019-02-08T15:46:20.465Z,10.37
2019-02-08T15:48:46.332Z,11.60
2019-02-08T15:51:12.112Z,8.53
2019-02-08T15:53:37.878Z,11.40
2019-02-08T15:56:45.313Z,8.63
2019-02-08T15:59:11.087Z,9.33
2019-02-08T16:01:36.852Z,10.87
2019-02-08T16:04:44.321Z,12.37
2019-02-08T16:07:11.609Z,10.43
2019-02-08T16:09:37.768Z,10.17
2019-02-08T16:12:03.623Z,12.47
2019-02-08T16:14:29.392Z,8.60
2019-02-08T16:16:55.156Z,9.03
2019-02-08T16:19:20.919Z,11.90
2019-02-08T16:21:46.689Z,12.00
2019-02-08T16:24:12.460Z,8.27
2019-02-08T16:26:38.222Z,8.43
2019-02-08T16:32:17.255Z,6.67
2019-02-08T16:34:43.133Z,5.53
2019-02-08T16:37:08.902Z,7.80
2019-02-08T16:39:34.678Z,10.90
2019-02-08T16:42:00.451Z,6.87
2019-02-08T16:44:26.227Z,6.73
2019-02-08T16:46:51.988Z,8.43
2019-02-08T16:49:17.763Z,6.13
2019-02-08T16:51:43.511Z,7.37
2019-02-08T16:54:09.273Z,6.77
2019-02-08T16:56:35.050Z,6.90
2019-02-08T16:59:00.807Z,7.50
2019-02-08T17:01:26.570Z,5.80
2019-02-08T17:03:52.344Z,6.20
2019-02-08T17:06:18.103Z,9.30
2019-02-08T17:08:43.867Z,6.07
2019-02-08T17:11:09.636Z,6.10
2019-02-08T17:13:35.400Z,5.73
2019-02-08T17:16:01.279Z,8.20
2019-02-08T17:18:27.024Z,8.07
2019-02-08T17:20:52.903Z,11.27
2019-02-08T17:23:18.667Z,15.13
2019-02-08T17:25:44.442Z,6.67
2019-02-08T17:28:10.298Z,6.73
2019-02-08T17:30:36.162Z,5.63
2019-02-08T17:33:02.027Z,6.93
2019-02-08T17:36:09.503Z,7.07
2019-02-08T17:38:35.698Z,6.87
2019-02-08T17:41:44.613Z,10.77
2019-02-08T17:44:10.380Z,8.97
2019-02-08T17:46:36.154Z,6.13
2019-02-08T17:49:01.903Z,4.40
2019-02-08T17:51:27.679Z,4.97
2019-02-08T17:53:53.432Z,8.23
2019-02-08T17:56:19.204Z,6.13
2019-02-08T17:58:44.961Z,6.23
2019-02-08T18:01:10.719Z,4.17
2019-02-08T18:03:36.473Z,6.57
2019-02-08T18:06:02.240Z,6.27
2019-02-08T18:08:28.004Z,5.43
2019-02-08T18:10:53.877Z,4.83
2019-02-08T18:13:19.731Z,8.23
2019-02-08T18:15:45.476Z,5.93
2019-02-08T18:18:52.921Z,4.47
2019-02-08T18:21:18.722Z,3.80
2019-02-08T18:23:44.478Z,4.40
2019-02-08T18:26:10.242Z,6.03
2019-02-08T18:28:36.008Z,4.20
2019-02-08T18:31:01.770Z,4.43
2019-02-08T18:33:27.538Z,5.57
2019-02-08T18:35:53.302Z,4.20
2019-02-08T18:38:19.126Z,3.97
2019-02-08T18:40:44.878Z,5.60
2019-02-08T18:43:10.648Z,4.07
2019-02-08T18:45:36.435Z,4.20
2019-02-08T18:48:43.879Z,4.00
2019-02-08T18:51:09.643Z,7.03
2019-02-08T18:53:35.421Z,5.20
2019-02-08T18:56:01.174Z,5.20
2019-02-08T18:58:26.941Z,3.73
2019-02-08T19:01:34.404Z,4.63
2019-02-08T19:04:00.172Z,4.40
2019-02-08T19:06:25.929Z,3.80
2019-02-08T19:08:51.700Z,3.90
2019-02-08T19:11:17.464Z,3.80
2019-02-08T19:13:43.238Z,4.37
2019-02-08T19:16:08.999Z,5.13
2019-02-08T19:18:34.772Z,3.67
2019-02-08T19:21:00.546Z,4.30
2019-02-08T19:23:26.322Z,4.40
2019-02-08T19:25:52.073Z,4.37
2019-02-08T19:28:17.842Z,5.73
2019-02-08T19:30:43.795Z,7.97
2019-02-08T19:33:09.570Z,6.47
2019-02-08T19:35:35.323Z,6.70
2019-02-08T19:38:42.774Z,8.90
2019-02-08T19:41:08.526Z,7.27
2019-02-08T19:43:34.293Z,6.30
2019-02-08T19:46:00.048Z,5.47
2019-02-08T19:48:25.821Z,5.10
2019-02-08T19:50:51.571Z,4.47
2019-02-08T19:53:17.330Z,5.03
2019-02-08T19:55:43.075Z,5.30
2019-02-08T19:58:50.526Z,4.43
2019-02-08T20:01:16.288Z,4.90
2019-02-08T20:03:42.058Z,5.83
2019-02-08T20:06:07.817Z,5.60
2019-02-08T20:08:33.620Z,4.70
2019-02-08T20:10:59.389Z,4.03
2019-02-08T20:13:25.159Z,4.03
2019-02-08T20:15:50.915Z,8.40
2019-02-08T20:18:16.664Z,6.43
2019-02-08T20:20:42.441Z,5.57
2019-02-08T20:23:08.205Z,4.53
2019-02-08T20:26:15.648Z,5.27
2019-02-08T20:28:42.650Z,4.73
2019-02-08T20:31:09.097Z,5.00
2019-02-08T20:33:34.851Z,4.27
2019-02-08T20:36:00.615Z,4.30
2019-02-08T20:38:26.376Z,4.23
2019-02-08T20:40:52.137Z,5.83
2019-02-08T20:43:17.899Z,4.20
2019-02-08T20:45:43.674Z,6.70
2019-02-08T20:48:51.103Z,4.10
2019-02-08T20:51:16.878Z,5.10
2019-02-08T20:53:42.628Z,6.17
2019-02-08T20:56:08.494Z,3.90
2019-02-08T21:01:21.575Z,5.70
2019-02-08T21:03:47.328Z,5.77
2019-02-08T21:06:13.095Z,5.13
2019-02-08T21:08:38.855Z,5.33
2019-02-08T21:11:04.616Z,6.03
2019-02-08T21:13:30.369Z,5.73
2019-02-08T21:15:56.138Z,4.83
2019-02-08T21:18:21.899Z,4.80
2019-02-08T21:20:47.922Z,5.20
2019-02-08T21:23:13.653Z,3.57
2019-02-08T21:26:21.102Z,5.13
2019-02-08T21:28:46.868Z,5.27
2019-02-08T21:31:12.643Z,5.17
2019-02-08T21:33:38.402Z,4.33
2019-02-08T21:36:04.273Z,6.27
2019-02-08T21:38:30.030Z,7.47
2019-02-08T21:40:55.795Z,4.93
2019-02-08T21:43:21.552Z,4.20
2019-02-08T21:45:47.326Z,5.67
2019-02-08T21:48:13.087Z,5.33
2019-02-08T21:50:38.950Z,4.37
2019-02-08T21:53:04.808Z,6.00
2019-02-08T21:55:30.659Z,5.67
2019-02-08T21:57:56.538Z,5.10
2019-02-08T22:03:36.331Z,4.03
2019-02-08T22:06:43.772Z,4.10
2019-02-08T22:09:09.525Z,4.63
2019-02-08T22:11:35.293Z,3.83
2019-02-08T22:14:01.056Z,4.03
2019-02-08T22:16:26.821Z,5.53
2019-02-08T22:18:52.577Z,5.83
2019-02-08T22:21:18.359Z,3.97
2019-02-08T22:23:44.116Z,5.33
2019-02-08T22:26:09.881Z,4.43
2019-02-08T22:28:35.647Z,6.03
2019-02-08T22:31:01.542Z,3.83
2019-02-08T22:33:27.298Z,5.93
2019-02-08T22:36:00.509Z,5.70
2019-02-08T22:38:26.277Z,3.80
2019-02-08T22:40:52.050Z,5.93
2019-02-08T22:43:17.924Z,5.53
2019-02-08T22:45:43.688Z,4.83
2019-02-08T22:48:51.124Z,3.90
2019-02-08T22:51:16.869Z,5.23
2019-02-08T22:53:42.633Z,4.57
2019-02-08T22:56:08.408Z,6.80
2019-02-08T22:58:34.179Z,5.97
2019-02-08T23:01:41.604Z,4.83
2019-02-08T23:04:07.380Z,5.67
2019-02-08T23:06:33.133Z,6.13
2019-02-08T23:08:58.909Z,4.87
2019-02-08T23:11:24.769Z,4.60
2019-02-08T23:13:50.642Z,5.03
2019-02-08T23:16:16.401Z,4.27
2019-02-08T23:18:42.160Z,5.87
2019-02-08T23:21:07.930Z,5.97
2019-02-08T23:23:33.702Z,6.97
2019-02-08T23:25:59.461Z,4.43
2019-02-08T23:28:25.237Z,6.57
2019-02-08T23:30:51.005Z,4.63
2019-02-08T23:33:16.770Z,6.93
2019-02-08T23:35:43.271Z,5.73
2019-02-08T23:38:10.216Z,6.13
2019-02-08T23:40:35.971Z,7.17
2019-02-08T23:43:01.736Z,7.67
2019-02-08T23:45:27.606Z,5.57
2019-02-08T23:47:53.378Z,5.43
2019-02-08T23:51:00.803Z,7.97
2019-02-08T23:53:26.571Z,7.73
2019-02-08T23:55:52.330Z,7.00
2019-02-08T23:58:18.099Z,5.70
